Hyundai Forward — 3EJY9 — position and weather

sailwx.info

Track history (hours):
 
Tides and Currents Weather Stations Pressure Air Temp Water Temp Dewpoint Dewpoint Depression Visibility Wind Speed Wind Dir Waves Ship Positions

Hyundai Forward

Last reported at 2015-May-21 06:05 UTC. Time now 2015-May-27 18:03 UTC.
Position N 28°21' W 078°41'.

Length 295 m; draft 10.8 m.

Type: Cargo ship. MMSI: 372652000.

Date/timePositionNaut miles runAvg speedWind from/ knotsBaromVisibWave heightAir tempDewpointWater temp
2015-May-21 06:05N 28°21' W 078°41'212 6.9
2015-May-19 23:31N 31°52' W 079°06'1616.2
2015-May-19 22:33N 32°02' W 078°52'15717.2
2015-May-19 13:25N 33°49' W 076°34'3315.3
2015-May-19 11:15N 34°11' W 076°05'1215.5
2015-May-19 10:28N 34°20' W 075°55'1314.7
2015-May-19 09:33N 34°30' W 075°44'1414.2
2015-May-19 08:33N 34°40' W 075°32'1413.7
2015-May-19 07:33N 34°51' W 075°22'2812.6
2015-May-19 05:20N 35°12' W 074°59'1114.0
2015-May-19 04:32N 35°23' W 074°60'1615.8
2015-May-19 03:34N 35°39' W 074°60'175 6.0
2015-May-17 22:12N 38°29' W 074°12'5414.2
2015-May-17 18:26N 39°21' W 073°53'1314.7
2015-May-17 17:33N 39°34' W 073°52'1514.8
2015-May-17 16:33N 39°49' W 073°51'1514.7
2015-May-17 15:32N 40°04' W 073°50'1714.7
2015-May-17 14:25N 40°20' W 073°48'1011.3
2015-May-17 13:33N 40°29' W 073°54'1312.7
2015-May-17 12:33N 40°39' W 074°04'4 3.7
2015-May-17 11:33N 40°40' W 074°09'0 0.5
2015-May-17 10:31N 40°40' W 074°08'0 0.0
2015-May-17 09:31N 40°40' W 074°08'0 0.0
2015-May-17 08:31N 40°40' W 074°08'0 0.0
2015-May-17 07:31N 40°40' W 074°08'0 0.0
2015-May-17 06:31N 40°40' W 074°08'0 0.0
2015-May-17 05:31N 40°40' W 074°08'0 0.0
2015-May-17 04:31N 40°40' W 074°08'0 0.0
2015-May-17 03:28N 40°40' W 074°08'0 0.0
2015-May-17 02:31N 40°40' W 074°08'0 0.0
2015-May-17 01:31N 40°40' W 074°08'0 0.0
2015-May-17 00:31N 40°40' W 074°08'0 0.0
2015-May-16 23:31N 40°40' W 074°08'0 0.0
2015-May-16 22:31N 40°40' W 074°08'0 0.0
2015-May-16 21:31N 40°40' W 074°08'0 0.0
2015-May-16 20:31N 40°40' W 074°08'0 0.0
2015-May-16 19:31N 40°40' W 074°08'0 0.0
2015-May-16 18:31N 40°40' W 074°08'0 0.0
2015-May-16 17:31N 40°40' W 074°08'0 0.0
2015-May-16 16:31N 40°40' W 074°08'0 0.0
2015-May-16 15:28N 40°40' W 074°08'3 3.1
2015-May-16 14:33N 40°39' W 074°05'1110.7
2015-May-16 13:34N 40°30' W 073°57'10 9.9
2015-May-16 12:33N 40°24' W 073°47'9 9.2
2015-May-16 11:33N 40°15' W 073°46'1313.2
2015-May-16 10:32N 40°02' W 073°44'1716.0
2015-May-16 09:29N 39°45' W 073°41'1516.3
2015-May-16 08:33N 39°30' W 073°45'1616.1
2015-May-16 07:33N 39°15' W 073°50'1616.1
2015-May-16 06:33N 38°59' W 073°55'1615.9
2015-May-16 05:33N 38°45' W 074°04'1615.8
2015-May-16 04:32N 38°30' W 074°13'1515.7
2015-May-16 03:33N 38°16' W 074°21'1515.2
2015-May-16 02:33N 38°01' W 074°21'1615.8
2015-May-16 01:33N 37°45' W 074°17'21015.9
2015-May-15 12:22N 34°28' W 075°46'2321.6
2015-May-15 11:18N 34°11' W 076°05'213 9.0
2015-May-14 11:33N 32°18' W 079°40'1514.5
2015-May-14 10:33N 32°06' W 079°50'1313.1
2015-May-14 09:33N 32°01' W 080°04'1313.0
2015-May-14 08:33N 32°00' W 080°20'1312.8
2015-May-14 07:33N 31°58' W 080°34'1111.3
2015-May-14 06:33N 32°00' W 080°47'1110.6
2015-May-14 05:33N 32°05' W 080°59'6 6.4
2015-May-14 04:33N 32°06' W 081°06'2 1.6
2015-May-14 03:08N 32°07' W 081°08'0 0.0
2015-May-14 02:32N 32°07' W 081°08'0 0.0
2015-May-14 01:23N 32°07' W 081°08'0 0.0
2015-May-14 00:32N 32°07' W 081°08'0 0.0
2015-May-13 23:32N 32°07' W 081°08'0 0.0
2015-May-13 22:29N 32°07' W 081°08'0 0.0
2015-May-13 21:32N 32°07' W 081°08'0 0.0
2015-May-13 20:26N 32°07' W 081°08'0 0.0
2015-May-13 19:26N 32°07' W 081°08'0 0.0
2015-May-13 18:32N 32°07' W 081°08'0 0.0
2015-May-13 17:32N 32°07' W 081°08'0 0.0
2015-May-13 16:14N 32°07' W 081°08'0 0.0
2015-May-13 15:26N 32°07' W 081°08'0 0.0
2015-May-13 14:33N 32°07' W 081°08'3 2.8
2015-May-13 13:33N 32°05' W 081°06'6 5.6
2015-May-13 12:33N 32°05' W 080°59'10 9.5
2015-May-13 11:33N 32°02' W 080°49'1111.2
2015-May-13 10:33N 31°56' W 080°37'5 5.4
2015-May-13 09:33N 31°54' W 080°32'1 0.7
2015-May-13 07:33N 31°53' W 080°33'3 3.0
2015-May-13 06:33N 31°51' W 080°31'8 8.0
2015-May-13 05:33N 31°44' W 080°26'  
Track history (hours):
 
Tides and Currents Weather Stations Pressure Air Temp Water Temp Dewpoint Dewpoint Depression Visibility Wind Speed Wind Dir Waves Ship Positions

Hyundai Forward

Last reported at 2015-May-21 06:05 UTC. Time now 2015-May-27 18:03 UTC.
Position N 28°21' W 078°41'.

Length 295 m; draft 10.8 m.

Type: Cargo ship. MMSI: 372652000.

Date/timePositionNaut miles runAvg speedWind from/ knotsBaromVisibWave heightAir tempDewpointWater temp
2015-May-21 06:05N 28°21' W 078°41'212 6.9
2015-May-19 23:31N 31°52' W 079°06'1616.2
2015-May-19 22:33N 32°02' W 078°52'15717.2
2015-May-19 13:25N 33°49' W 076°34'3315.3
2015-May-19 11:15N 34°11' W 076°05'1215.5
2015-May-19 10:28N 34°20' W 075°55'1314.7
2015-May-19 09:33N 34°30' W 075°44'1414.2
2015-May-19 08:33N 34°40' W 075°32'1413.7
2015-May-19 07:33N 34°51' W 075°22'2812.6
2015-May-19 05:20N 35°12' W 074°59'1114.0
2015-May-19 04:32N 35°23' W 074°60'1615.8
2015-May-19 03:34N 35°39' W 074°60'175 6.0
2015-May-17 22:12N 38°29' W 074°12'5414.2
2015-May-17 18:26N 39°21' W 073°53'1314.7
2015-May-17 17:33N 39°34' W 073°52'1514.8
2015-May-17 16:33N 39°49' W 073°51'1514.7
2015-May-17 15:32N 40°04' W 073°50'1714.7
2015-May-17 14:25N 40°20' W 073°48'1011.3
2015-May-17 13:33N 40°29' W 073°54'1312.7
2015-May-17 12:33N 40°39' W 074°04'4 3.7
2015-May-17 11:33N 40°40' W 074°09'0 0.5
2015-May-17 10:31N 40°40' W 074°08'0 0.0
2015-May-17 09:31N 40°40' W 074°08'0 0.0
2015-May-17 08:31N 40°40' W 074°08'0 0.0
2015-May-17 07:31N 40°40' W 074°08'0 0.0
2015-May-17 06:31N 40°40' W 074°08'0 0.0
2015-May-17 05:31N 40°40' W 074°08'0 0.0
2015-May-17 04:31N 40°40' W 074°08'0 0.0
2015-May-17 03:28N 40°40' W 074°08'0 0.0
2015-May-17 02:31N 40°40' W 074°08'0 0.0
2015-May-17 01:31N 40°40' W 074°08'0 0.0
2015-May-17 00:31N 40°40' W 074°08'0 0.0
2015-May-16 23:31N 40°40' W 074°08'0 0.0
2015-May-16 22:31N 40°40' W 074°08'0 0.0
2015-May-16 21:31N 40°40' W 074°08'0 0.0
2015-May-16 20:31N 40°40' W 074°08'0 0.0
2015-May-16 19:31N 40°40' W 074°08'0 0.0
2015-May-16 18:31N 40°40' W 074°08'0 0.0
2015-May-16 17:31N 40°40' W 074°08'0 0.0
2015-May-16 16:31N 40°40' W 074°08'0 0.0
2015-May-16 15:28N 40°40' W 074°08'3 3.1
2015-May-16 14:33N 40°39' W 074°05'1110.7
2015-May-16 13:34N 40°30' W 073°57'10 9.9
2015-May-16 12:33N 40°24' W 073°47'9 9.2
2015-May-16 11:33N 40°15' W 073°46'1313.2
2015-May-16 10:32N 40°02' W 073°44'1716.0
2015-May-16 09:29N 39°45' W 073°41'1516.3
2015-May-16 08:33N 39°30' W 073°45'1616.1
2015-May-16 07:33N 39°15' W 073°50'1616.1
2015-May-16 06:33N 38°59' W 073°55'1615.9
2015-May-16 05:33N 38°45' W 074°04'1615.8
2015-May-16 04:32N 38°30' W 074°13'1515.7
2015-May-16 03:33N 38°16' W 074°21'1515.2
2015-May-16 02:33N 38°01' W 074°21'1615.8
2015-May-16 01:33N 37°45' W 074°17'21015.9
2015-May-15 12:22N 34°28' W 075°46'2321.6
2015-May-15 11:18N 34°11' W 076°05'213 9.0
2015-May-14 11:33N 32°18' W 079°40'1514.5
2015-May-14 10:33N 32°06' W 079°50'1313.1
2015-May-14 09:33N 32°01' W 080°04'1313.0
2015-May-14 08:33N 32°00' W 080°20'1312.8
2015-May-14 07:33N 31°58' W 080°34'1111.3
2015-May-14 06:33N 32°00' W 080°47'1110.6
2015-May-14 05:33N 32°05' W 080°59'6 6.4
2015-May-14 04:33N 32°06' W 081°06'2 1.6
2015-May-14 03:08N 32°07' W 081°08'0 0.0
2015-May-14 02:32N 32°07' W 081°08'0 0.0
2015-May-14 01:23N 32°07' W 081°08'0 0.0
2015-May-14 00:32N 32°07' W 081°08'0 0.0
2015-May-13 23:32N 32°07' W 081°08'0 0.0
2015-May-13 22:29N 32°07' W 081°08'0 0.0
2015-May-13 21:32N 32°07' W 081°08'0 0.0
2015-May-13 20:26N 32°07' W 081°08'0 0.0
2015-May-13 19:26N 32°07' W 081°08'0 0.0
2015-May-13 18:32N 32°07' W 081°08'0 0.0
2015-May-13 17:32N 32°07' W 081°08'0 0.0
2015-May-13 16:14N 32°07' W 081°08'0 0.0
2015-May-13 15:26N 32°07' W 081°08'0 0.0
2015-May-13 14:33N 32°07' W 081°08'3 2.8
2015-May-13 13:33N 32°05' W 081°06'6 5.6
2015-May-13 12:33N 32°05' W 080°59'10 9.5
2015-May-13 11:33N 32°02' W 080°49'1111.2
2015-May-13 10:33N 31°56' W 080°37'5 5.4
2015-May-13 09:33N 31°54' W 080°32'1 0.7
2015-May-13 07:33N 31°53' W 080°33'3 3.0
2015-May-13 06:33N 31°51' W 080°31'8 8.0
2015-May-13 05:33N 31°44' W 080°26'  

Dump ship's entire track history